createdAt,value
2019-03-19T00:00:07.112Z,999.05
2019-03-19T00:01:07.283Z,999.07
2019-03-19T00:02:07.464Z,999.13
2019-03-19T00:03:07.651Z,999.10
2019-03-19T00:04:07.768Z,999.11
2019-03-19T00:05:07.849Z,999.16
2019-03-19T00:06:08.151Z,999.16
2019-03-19T00:07:08.241Z,999.19
2019-03-19T00:08:08.323Z,999.23
2019-03-19T00:09:08.432Z,999.23
2019-03-19T00:10:08.649Z,999.23
2019-03-19T00:11:08.761Z,999.22
2019-03-19T00:12:08.854Z,999.24
2019-03-19T00:13:09.028Z,999.26
2019-03-19T00:14:09.213Z,999.27
2019-03-19T00:15:09.387Z,999.27
2019-03-19T00:16:09.583Z,999.30
2019-03-19T00:17:09.950Z,999.31
2019-03-19T00:18:10.037Z,999.35
2019-03-19T00:19:10.245Z,999.38
2019-03-19T00:20:10.218Z,999.38
2019-03-19T00:21:10.370Z,999.45
2019-03-19T00:22:10.554Z,999.46
2019-03-19T00:23:10.706Z,999.47
2019-03-19T00:24:10.828Z,999.44
2019-03-19T00:25:11.062Z,999.50
2019-03-19T00:26:11.846Z,999.51
2019-03-19T00:27:11.380Z,999.54
2019-03-19T00:28:11.406Z,999.55
2019-03-19T00:29:11.630Z,999.52
2019-03-19T00:30:11.806Z,999.58
2019-03-19T00:31:11.979Z,999.58
2019-03-19T00:32:12.177Z,999.53
2019-03-19T00:33:12.392Z,999.54
2019-03-19T00:34:12.460Z,999.52
2019-03-19T00:35:12.711Z,999.55
2019-03-19T00:36:12.881Z,999.55
2019-03-19T00:37:13.089Z,999.54
2019-03-19T00:38:13.156Z,999.55
2019-03-19T00:39:13.343Z,999.56
2019-03-19T00:40:13.501Z,999.62
2019-03-19T00:41:14.312Z,999.57
2019-03-19T00:42:13.896Z,999.60
2019-03-19T00:43:13.909Z,999.59
2019-03-19T00:44:14.424Z,999.60
2019-03-19T00:45:14.298Z,999.63
2019-03-19T00:46:14.722Z,999.61
2019-03-19T00:47:14.701Z,999.65
2019-03-19T00:48:14.760Z,999.60
2019-03-19T00:49:14.927Z,999.58
2019-03-19T00:50:15.127Z,999.58
2019-03-19T00:51:15.296Z,999.54
2019-03-19T00:52:15.510Z,999.53
2019-03-19T00:53:16.228Z,999.57
2019-03-19T00:54:16.068Z,999.57
2019-03-19T00:55:15.969Z,999.59
2019-03-19T00:56:16.151Z,999.60
2019-03-19T00:57:16.342Z,999.59
2019-03-19T00:58:16.526Z,999.63
2019-03-19T00:59:16.716Z,999.60
2019-03-19T01:00:16.991Z,999.63
2019-03-19T01:01:17.074Z,999.60
2019-03-19T01:02:17.269Z,999.65
2019-03-19T01:03:17.679Z,999.65
2019-03-19T01:04:17.618Z,999.63
2019-03-19T01:05:17.731Z,999.64
2019-03-19T01:06:19.485Z,999.64
2019-03-19T01:07:18.105Z,999.70
2019-03-19T01:08:18.259Z,999.70
2019-03-19T01:09:18.456Z,999.71
2019-03-19T01:10:18.577Z,999.63
2019-03-19T01:11:18.750Z,999.67
2019-03-19T01:12:18.984Z,999.62
2019-03-19T01:13:19.259Z,999.59
2019-03-19T01:14:19.270Z,999.59
2019-03-19T01:15:19.482Z,999.57
2019-03-19T01:16:19.564Z,999.55
2019-03-19T01:17:19.758Z,999.59
2019-03-19T01:18:20.010Z,999.58
2019-03-19T01:19:20.067Z,999.62
2019-03-19T01:20:20.240Z,999.62
2019-03-19T01:21:20.412Z,999.62
2019-03-19T01:22:20.671Z,999.66
2019-03-19T01:23:20.745Z,999.63
2019-03-19T01:24:20.932Z,999.65
2019-03-19T01:25:21.100Z,999.73
2019-03-19T01:26:21.210Z,999.69
2019-03-19T01:27:21.391Z,999.71
2019-03-19T01:28:21.467Z,999.74
2019-03-19T01:29:21.558Z,999.67
2019-03-19T01:30:21.773Z,999.68
2019-03-19T01:31:22.208Z,999.68
2019-03-19T01:32:22.036Z,999.69
2019-03-19T01:33:22.221Z,999.71
2019-03-19T01:34:22.390Z,999.68
2019-03-19T01:35:22.489Z,999.68
2019-03-19T01:36:22.649Z,999.72
2019-03-19T01:37:22.873Z,999.72
2019-03-19T01:38:23.068Z,999.66
2019-03-19T01:39:23.221Z,999.69
2019-03-19T01:40:23.311Z,999.72
2019-03-19T01:41:23.481Z,999.74
2019-03-19T01:42:23.718Z,999.75
2019-03-19T01:43:23.778Z,999.71
2019-03-19T01:44:23.962Z,999.75
2019-03-19T01:45:25.162Z,999.71
2019-03-19T01:46:24.261Z,999.68
2019-03-19T01:47:24.443Z,999.71
2019-03-19T01:48:24.611Z,999.74
2019-03-19T01:49:24.776Z,999.73
2019-03-19T01:50:24.870Z,999.74
2019-03-19T01:51:24.974Z,999.69
2019-03-19T01:52:25.339Z,999.68
2019-03-19T01:53:25.373Z,999.68
2019-03-19T01:54:25.528Z,999.71
2019-03-19T01:55:25.812Z,999.70
2019-03-19T01:56:25.927Z,999.71
2019-03-19T01:57:26.119Z,999.74
2019-03-19T01:58:26.241Z,999.76
2019-03-19T01:59:26.452Z,999.76
2019-03-19T02:00:26.665Z,999.75
2019-03-19T02:01:26.765Z,999.74
2019-03-19T02:02:26.912Z,999.72
2019-03-19T02:03:27.039Z,999.73
2019-03-19T02:04:27.230Z,999.72
2019-03-19T02:05:27.462Z,999.75
2019-03-19T02:06:27.576Z,999.82
2019-03-19T02:07:27.722Z,999.85
2019-03-19T02:08:27.904Z,999.85
2019-03-19T02:09:28.113Z,999.85
2019-03-19T02:10:28.280Z,999.85
2019-03-19T02:11:28.465Z,999.89
2019-03-19T02:12:28.686Z,999.90
2019-03-19T02:13:28.751Z,999.88
2019-03-19T02:14:28.872Z,999.92
2019-03-19T02:15:29.068Z,999.91
2019-03-19T02:16:29.355Z,999.90
2019-03-19T02:17:29.442Z,999.88
2019-03-19T02:18:29.548Z,999.89
2019-03-19T02:19:29.777Z,999.87
2019-03-19T02:20:29.941Z,999.93
2019-03-19T02:21:30.152Z,999.90
2019-03-19T02:22:30.219Z,999.92
2019-03-19T02:23:30.434Z,999.92
2019-03-19T02:24:30.539Z,999.96
2019-03-19T02:25:30.684Z,999.99
2019-03-19T02:26:30.989Z,1000.00
2019-03-19T02:27:30.991Z,1000.05
2019-03-19T02:28:31.164Z,1000.04
2019-03-19T02:29:31.325Z,1000.02
2019-03-19T02:30:31.501Z,1000.03
2019-03-19T02:31:31.681Z,1000.08
2019-03-19T02:32:31.833Z,1000.03
2019-03-19T02:33:32.053Z,1000.05
2019-03-19T02:34:32.150Z,1000.04
2019-03-19T02:35:32.438Z,1000.07
2019-03-19T02:36:32.610Z,1000.11
2019-03-19T02:37:32.668Z,1000.15
2019-03-19T02:38:33.079Z,1000.20
2019-03-19T02:39:32.985Z,1000.22
2019-03-19T02:40:33.138Z,1000.18
2019-03-19T02:41:33.447Z,1000.23
2019-03-19T02:42:33.603Z,1000.19
2019-03-19T02:43:34.772Z,1000.24
2019-03-19T02:44:34.060Z,1000.27
2019-03-19T02:45:34.095Z,1000.22
2019-03-19T02:46:34.315Z,1000.25
2019-03-19T02:47:34.531Z,1000.24
2019-03-19T02:48:34.678Z,1000.24
2019-03-19T02:49:35.000Z,1000.22
2019-03-19T02:50:34.827Z,1000.25
2019-03-19T02:51:34.975Z,1000.23
2019-03-19T02:52:35.140Z,1000.26
2019-03-19T02:53:35.236Z,1000.25
2019-03-19T02:54:35.550Z,1000.30
2019-03-19T02:55:35.583Z,1000.25
2019-03-19T02:56:35.772Z,1000.30
2019-03-19T02:57:36.078Z,1000.32
2019-03-19T02:58:36.091Z,1000.25
2019-03-19T02:59:36.145Z,1000.24
2019-03-19T03:00:38.111Z,1000.18
2019-03-19T03:01:36.455Z,1000.17
2019-03-19T03:02:36.597Z,1000.20
2019-03-19T03:03:36.809Z,1000.23
2019-03-19T03:04:36.944Z,1000.24
2019-03-19T03:05:37.045Z,1000.24
2019-03-19T03:06:37.213Z,1000.33
2019-03-19T03:07:37.371Z,1000.29
2019-03-19T03:08:38.143Z,1000.29
2019-03-19T03:09:41.195Z,1000.32
2019-03-19T03:10:38.974Z,1000.37
2019-03-19T03:11:38.073Z,1000.42
2019-03-19T03:12:38.221Z,1000.44
2019-03-19T03:13:38.370Z,1000.43
2019-03-19T03:14:38.510Z,1000.43
2019-03-19T03:15:38.567Z,1000.39
2019-03-19T03:16:41.662Z,1000.38
2019-03-19T03:17:42.007Z,1000.37
2019-03-19T03:18:39.118Z,1000.37
2019-03-19T03:19:39.156Z,1000.40
2019-03-19T03:20:39.351Z,1000.43
2019-03-19T03:21:39.478Z,1000.41
2019-03-19T03:22:39.561Z,1000.45
2019-03-19T03:23:39.774Z,1000.46
2019-03-19T03:24:39.946Z,1000.46
2019-03-19T03:25:40.144Z,1000.47
2019-03-19T03:26:47.598Z,1000.53
2019-03-19T03:27:40.621Z,1000.53
2019-03-19T03:28:40.624Z,1000.52
2019-03-19T03:29:40.952Z,1000.53
2019-03-19T03:30:40.901Z,1000.54
2019-03-19T03:31:41.109Z,1000.56
2019-03-19T03:32:41.371Z,1000.59
2019-03-19T03:33:41.547Z,1000.62
2019-03-19T03:34:41.618Z,1000.61
2019-03-19T03:35:41.857Z,1000.63
2019-03-19T03:36:42.105Z,1000.63
2019-03-19T03:37:42.169Z,1000.66
2019-03-19T03:38:42.354Z,1000.68
2019-03-19T03:39:42.543Z,1000.65
2019-03-19T03:40:42.786Z,1000.70
2019-03-19T03:41:42.895Z,1000.72
2019-03-19T03:42:43.483Z,1000.78
2019-03-19T03:43:43.330Z,1000.76
2019-03-19T03:44:43.396Z,1000.77
2019-03-19T03:45:43.579Z,1000.79
2019-03-19T03:46:43.730Z,1000.76
2019-03-19T03:47:44.001Z,1000.71
2019-03-19T03:48:44.074Z,1000.73
2019-03-19T03:49:44.318Z,1000.74
2019-03-19T03:50:44.433Z,1000.79
2019-03-19T03:51:44.621Z,1000.73
2019-03-19T03:52:44.804Z,1000.83
2019-03-19T03:53:44.982Z,1000.87
2019-03-19T03:54:45.139Z,1000.85
2019-03-19T03:55:45.327Z,1000.91
2019-03-19T03:56:45.453Z,1000.95
2019-03-19T03:57:45.628Z,1000.95
2019-03-19T03:58:59.644Z,1001.02
2019-03-19T03:59:45.907Z,1001.01
2019-03-19T04:00:46.120Z,1001.06
2019-03-19T04:01:46.237Z,1001.11
2019-03-19T04:02:46.495Z,1001.14
2019-03-19T04:03:46.572Z,1001.15
2019-03-19T04:04:46.704Z,1001.17
2019-03-19T04:05:46.839Z,1001.19
2019-03-19T04:06:47.154Z,1001.18
2019-03-19T04:07:47.189Z,1001.20
2019-03-19T04:08:47.398Z,1001.18
2019-03-19T04:09:47.573Z,1001.14
2019-03-19T04:10:47.660Z,1001.15
2019-03-19T04:11:47.917Z,1001.14
2019-03-19T04:12:47.959Z,1001.10
2019-03-19T04:13:48.140Z,1001.13
2019-03-19T04:14:48.295Z,1001.13
2019-03-19T04:15:48.511Z,1001.16
2019-03-19T04:16:48.667Z,1001.15
2019-03-19T04:17:48.860Z,1001.20
2019-03-19T04:18:49.072Z,1001.20
2019-03-19T04:19:49.875Z,1001.18
2019-03-19T04:20:49.349Z,1001.26
2019-03-19T04:21:49.715Z,1001.29
2019-03-19T04:22:49.705Z,1001.24
2019-03-19T04:23:49.866Z,1001.25
2019-03-19T04:24:50.025Z,1001.27
2019-03-19T04:25:50.230Z,1001.28
2019-03-19T04:26:50.371Z,1001.27
2019-03-19T04:27:50.555Z,1001.28
2019-03-19T04:28:50.748Z,1001.25
2019-03-19T04:29:50.919Z,1001.24
2019-03-19T04:30:51.080Z,1001.28
2019-03-19T04:31:51.242Z,1001.23
2019-03-19T04:32:51.414Z,1001.26
2019-03-19T04:33:51.555Z,1001.22
2019-03-19T04:34:51.770Z,1001.22
2019-03-19T04:35:51.989Z,1001.26
2019-03-19T04:36:52.023Z,1001.23
2019-03-19T04:37:52.183Z,1001.25
2019-03-19T04:38:52.292Z,1001.29
2019-03-19T04:39:52.438Z,1001.31
2019-03-19T04:40:52.512Z,1001.27
2019-03-19T04:41:52.766Z,1001.30
2019-03-19T04:42:52.940Z,1001.29
2019-03-19T04:43:53.045Z,1001.18
2019-03-19T04:44:53.301Z,1001.20
2019-03-19T04:45:53.517Z,1001.16
2019-03-19T04:46:53.677Z,1001.15
2019-03-19T04:47:53.886Z,1001.18
2019-03-19T04:48:54.046Z,1001.19
2019-03-19T04:49:54.261Z,1001.18
2019-03-19T04:50:54.394Z,1001.22
2019-03-19T04:51:54.424Z,1001.23
2019-03-19T04:52:54.611Z,1001.26
2019-03-19T04:53:54.771Z,1001.24
2019-03-19T04:54:54.939Z,1001.26
2019-03-19T04:55:55.151Z,1001.25
2019-03-19T04:56:55.364Z,1001.29
2019-03-19T04:57:55.558Z,1001.23
2019-03-19T04:58:55.617Z,1001.24
2019-03-19T04:59:55.728Z,1001.20
2019-03-19T05:00:55.912Z,1001.22
2019-03-19T05:01:56.068Z,1001.13
2019-03-19T05:02:56.265Z,1001.14
2019-03-19T05:03:56.451Z,1001.16
2019-03-19T05:04:56.612Z,1001.17
2019-03-19T05:05:56.769Z,1001.15
2019-03-19T05:06:56.966Z,1001.22
2019-03-19T05:07:57.114Z,1001.24
2019-03-19T05:08:57.268Z,1001.25
2019-03-19T05:09:57.506Z,1001.27
2019-03-19T05:10:57.565Z,1001.28
2019-03-19T05:11:57.717Z,1001.28
2019-03-19T05:12:57.943Z,1001.31
2019-03-19T05:13:58.140Z,1001.35
2019-03-19T05:14:58.193Z,1001.33
2019-03-19T05:15:58.436Z,1001.39
2019-03-19T05:16:58.521Z,1001.37
2019-03-19T05:17:58.683Z,1001.42
2019-03-19T05:18:58.881Z,1001.39
2019-03-19T05:19:58.994Z,1001.43
2019-03-19T05:20:59.101Z,1001.45
2019-03-19T05:21:59.228Z,1001.45
2019-03-19T05:22:59.449Z,1001.47
2019-03-19T05:23:59.634Z,1001.49
2019-03-19T05:24:59.813Z,1001.44
2019-03-19T05:25:59.980Z,1001.49
2019-03-19T05:27:01.140Z,1001.49
2019-03-19T05:28:00.803Z,1001.50
2019-03-19T05:29:00.542Z,1001.52
2019-03-19T05:30:00.767Z,1001.52
2019-03-19T05:31:00.903Z,1001.53
2019-03-19T05:32:01.026Z,1001.52
2019-03-19T05:33:01.244Z,1001.54
2019-03-19T05:34:01.410Z,1001.54
2019-03-19T05:35:01.589Z,1001.55
2019-03-19T05:36:01.788Z,1001.56
2019-03-19T05:37:02.013Z,1001.56
2019-03-19T05:38:02.041Z,1001.59
2019-03-19T05:39:02.276Z,1001.57
2019-03-19T05:40:02.467Z,1001.57
2019-03-19T05:41:02.617Z,1001.59
2019-03-19T05:42:02.822Z,1001.61
2019-03-19T05:43:03.072Z,1001.62
2019-03-19T05:44:03.132Z,1001.63
2019-03-19T05:45:03.442Z,1001.65
2019-03-19T05:46:03.468Z,1001.65
2019-03-19T05:47:05.390Z,1001.69
2019-03-19T05:48:05.489Z,1001.67
2019-03-19T05:49:04.915Z,1001.70
2019-03-19T05:50:06.869Z,1001.69
2019-03-19T05:51:04.247Z,1001.67
2019-03-19T05:52:04.616Z,1001.68
2019-03-19T05:53:04.799Z,1001.69
2019-03-19T05:54:05.535Z,1001.71
2019-03-19T05:55:04.942Z,1001.70
2019-03-19T05:56:07.244Z,1001.74
2019-03-19T05:57:05.214Z,1001.77
2019-03-19T05:58:05.272Z,1001.80
2019-03-19T05:59:05.365Z,1001.87
2019-03-19T06:00:07.328Z,1001.83
2019-03-19T06:01:05.778Z,1001.91
2019-03-19T06:02:05.930Z,1001.92
2019-03-19T06:03:05.993Z,1001.95
2019-03-19T06:04:06.134Z,1001.96
2019-03-19T06:05:06.232Z,1001.98
2019-03-19T06:06:06.393Z,1002.02
2019-03-19T06:07:06.537Z,1001.98
2019-03-19T06:08:06.685Z,1001.97
2019-03-19T06:09:06.847Z,1002.00
2019-03-19T06:10:06.937Z,1001.98
2019-03-19T06:11:07.084Z,1001.96
2019-03-19T06:12:08.937Z,1001.93
2019-03-19T06:13:07.530Z,1001.99
2019-03-19T06:14:07.711Z,1001.98
2019-03-19T06:15:07.813Z,1001.99
2019-03-19T06:16:09.726Z,1002.04
2019-03-19T06:17:08.024Z,1002.09
2019-03-19T06:18:08.210Z,1002.10
2019-03-19T06:19:08.425Z,1002.13
2019-03-19T06:20:08.615Z,1002.15
2019-03-19T06:21:09.677Z,1002.18
2019-03-19T06:22:09.015Z,1002.21
2019-03-19T06:23:09.030Z,1002.23
2019-03-19T06:24:09.239Z,1002.27
2019-03-19T06:25:09.442Z,1002.29
2019-03-19T06:26:09.482Z,1002.30
2019-03-19T06:27:11.019Z,1002.33
2019-03-19T06:28:09.802Z,1002.31
2019-03-19T06:29:10.045Z,1002.34
2019-03-19T06:30:10.237Z,1002.34
2019-03-19T06:31:10.411Z,1002.32
2019-03-19T06:32:10.608Z,1002.38
2019-03-19T06:33:10.842Z,1002.35
2019-03-19T06:34:10.877Z,1002.36
2019-03-19T06:35:11.159Z,1002.39
2019-03-19T06:36:11.265Z,1002.40
2019-03-19T06:37:11.464Z,1002.43
2019-03-19T06:38:11.738Z,1002.44
2019-03-19T06:39:11.724Z,1002.46
2019-03-19T06:40:11.905Z,1002.45
2019-03-19T06:41:12.082Z,1002.45
2019-03-19T06:42:12.268Z,1002.46
2019-03-19T06:43:12.415Z,1002.45
2019-03-19T06:44:12.583Z,1002.47
2019-03-19T06:45:12.857Z,1002.43
2019-03-19T06:46:12.970Z,1002.45
2019-03-19T06:47:13.146Z,1002.47
2019-03-19T06:48:13.346Z,1002.52
2019-03-19T06:49:13.496Z,1002.53
2019-03-19T06:50:13.787Z,1002.56
2019-03-19T06:51:13.878Z,1002.59
2019-03-19T06:52:14.005Z,1002.61
2019-03-19T06:53:15.499Z,1002.68
2019-03-19T06:54:17.018Z,1002.70
2019-03-19T06:55:14.947Z,1003.22
2019-03-19T06:56:15.507Z,1004.78
2019-03-19T06:57:15.758Z,1006.42
2019-03-19T06:58:15.286Z,1007.47
2019-03-19T06:59:17.842Z,1007.55
2019-03-19T07:00:15.185Z,1007.61
2019-03-19T07:01:17.371Z,1007.68
2019-03-19T07:02:15.643Z,1007.76
2019-03-19T07:03:15.707Z,1007.69
2019-03-19T07:04:15.968Z,1007.50
2019-03-19T07:05:16.149Z,1006.91
2019-03-19T07:06:16.174Z,1006.92
2019-03-19T07:07:16.358Z,1007.34
2019-03-19T07:08:17.627Z,1007.21
2019-03-19T07:09:16.803Z,1007.13
2019-03-19T07:10:16.924Z,1006.96
2019-03-19T07:11:17.437Z,1006.87
2019-03-19T07:12:19.488Z,1006.97
2019-03-19T07:13:18.147Z,1006.83
2019-03-19T07:14:17.788Z,1006.73
2019-03-19T07:15:18.996Z,1006.72
2019-03-19T07:16:17.982Z,1006.62
2019-03-19T07:17:18.057Z,1006.76
2019-03-19T07:18:18.370Z,1006.80
2019-03-19T07:19:18.407Z,1006.70
2019-03-19T07:20:18.477Z,1006.55
2019-03-19T07:21:18.677Z,1006.55
2019-03-19T07:22:18.777Z,1006.41
2019-03-19T07:23:19.004Z,1006.27
2019-03-19T07:24:19.239Z,1006.13
2019-03-19T07:25:19.597Z,1006.04
2019-03-19T07:26:19.474Z,1005.98
2019-03-19T07:27:19.669Z,1005.90
2019-03-19T07:28:22.514Z,1005.79
2019-03-19T07:29:20.036Z,1005.75
2019-03-19T07:30:20.188Z,1005.04
2019-03-19T07:31:30.317Z,1004.32
2019-03-19T07:32:20.439Z,1003.75
2019-03-19T07:33:20.732Z,1003.46
2019-03-19T07:34:20.737Z,1003.41
2019-03-19T07:35:22.943Z,1003.39
2019-03-19T07:36:22.873Z,1003.38
2019-03-19T07:37:21.330Z,1003.39
2019-03-19T07:40:21.490Z,1003.51
2019-03-19T07:41:08.727Z,1003.50
2019-03-19T07:41:56.297Z,1003.59
2019-03-19T07:43:16.578Z,1003.58
2019-03-19T07:43:56.888Z,1003.57
2019-03-19T07:44:58.140Z,1003.54
2019-03-19T07:45:56.608Z,1003.58
2019-03-19T07:46:56.162Z,1003.58
2019-03-19T07:47:56.677Z,1003.56
2019-03-19T07:48:56.545Z,1003.52
2019-03-19T07:49:56.614Z,1003.51
2019-03-19T07:50:56.796Z,1003.52
2019-03-19T07:51:56.982Z,1003.53
2019-03-19T07:52:57.481Z,1003.49
2019-03-19T07:54:06.393Z,1003.47
2019-03-19T07:55:01.505Z,1003.48
2019-03-19T07:55:58.071Z,1003.47
2019-03-19T07:56:57.789Z,1003.46
2019-03-19T07:57:58.138Z,1003.45
2019-03-19T07:58:58.358Z,1003.52
2019-03-19T08:00:07.640Z,1003.56
2019-03-19T08:00:58.673Z,1003.57
2019-03-19T08:01:58.953Z,1003.59
2019-03-19T08:02:58.896Z,1003.58
2019-03-19T08:03:58.936Z,1003.58
2019-03-19T08:05:01.320Z,1003.64
2019-03-19T08:06:00.597Z,1003.65
2019-03-19T08:06:59.470Z,1003.65
2019-03-19T08:07:59.779Z,1003.63
2019-03-19T08:08:59.918Z,1003.66
2019-03-19T08:10:00.307Z,1003.67
2019-03-19T08:11:00.235Z,1003.66
2019-03-19T08:12:00.343Z,1003.68
2019-03-19T08:13:00.525Z,1003.68
2019-03-19T08:14:00.639Z,1003.74
2019-03-19T08:15:00.905Z,1003.72
2019-03-19T08:16:03.349Z,1003.71
2019-03-19T08:17:03.197Z,1003.76
2019-03-19T08:18:02.290Z,1003.77
2019-03-19T08:19:02.255Z,1003.77
2019-03-19T08:20:02.652Z,1003.74
2019-03-19T08:21:03.412Z,1003.74
2019-03-19T08:22:06.512Z,1003.76
2019-03-19T08:23:03.279Z,1003.73
2019-03-19T08:24:03.651Z,1003.76
2019-03-19T08:25:04.214Z,1003.74
2019-03-19T08:26:03.516Z,1003.74
2019-03-19T08:27:03.429Z,1003.73
2019-03-19T08:28:03.297Z,1003.68
2019-03-19T08:29:03.206Z,1003.67
2019-03-19T08:30:03.444Z,1003.67
2019-03-19T08:31:03.622Z,1003.61
2019-03-19T08:32:03.799Z,1003.64
2019-03-19T08:33:04.972Z,1003.68
2019-03-19T08:34:10.994Z,1003.69
2019-03-19T08:35:13.393Z,1003.65
2019-03-19T08:42:48.512Z,1003.77
2019-03-19T08:43:17.173Z,1003.84
2019-03-19T08:44:15.599Z,1003.85
2019-03-19T08:45:14.276Z,1003.82
2019-03-19T08:46:15.487Z,1003.85
2019-03-19T08:47:14.310Z,1003.86
2019-03-19T08:48:13.631Z,1003.87
2019-03-19T08:49:14.930Z,1003.82
2019-03-19T08:50:14.445Z,1003.80
2019-03-19T08:51:14.081Z,1003.83
2019-03-19T08:52:14.290Z,1003.80
2019-03-19T08:53:14.512Z,1003.79
2019-03-19T08:54:14.579Z,1003.76
2019-03-19T08:55:14.664Z,1003.77
2019-03-19T08:56:15.098Z,1003.74
2019-03-19T08:57:16.030Z,1003.74
2019-03-19T08:58:16.487Z,1003.65
2019-03-19T08:59:15.507Z,1003.70
2019-03-19T09:00:15.768Z,1003.67
2019-03-19T09:01:15.733Z,1003.68
2019-03-19T09:02:15.922Z,1003.65
2019-03-19T09:03:16.110Z,1003.71
2019-03-19T09:04:16.439Z,1003.66
2019-03-19T09:05:16.573Z,1003.70
2019-03-19T09:06:16.510Z,1003.65
2019-03-19T09:07:16.722Z,1003.70
2019-03-19T09:08:16.749Z,1003.60
2019-03-19T09:09:16.965Z,1003.64
2019-03-19T09:10:17.199Z,1003.63
2019-03-19T09:11:17.285Z,1003.61
2019-03-19T09:12:18.213Z,1003.59
2019-03-19T09:13:18.484Z,1003.57
2019-03-19T09:14:19.296Z,1003.57
2019-03-19T09:15:19.335Z,1003.66
2019-03-19T09:16:19.862Z,1003.69
2019-03-19T09:17:19.588Z,1003.67
2019-03-19T09:18:18.790Z,1003.67
2019-03-19T09:19:18.793Z,1003.62
2019-03-19T09:20:20.675Z,1003.70
2019-03-19T09:21:19.260Z,1003.66
2019-03-19T09:22:19.963Z,1003.71
2019-03-19T09:23:19.434Z,1003.71
2019-03-19T09:24:19.626Z,1003.73
2019-03-19T09:25:19.686Z,1003.76
2019-03-19T09:26:19.817Z,1003.72
2019-03-19T09:27:20.199Z,1003.78
2019-03-19T09:28:20.308Z,1003.83
2019-03-19T09:29:20.503Z,1003.87
2019-03-19T09:30:20.671Z,1003.84
2019-03-19T09:31:20.912Z,1003.86
2019-03-19T09:32:21.766Z,1003.89
2019-03-19T09:33:21.642Z,1003.88
2019-03-19T09:34:21.350Z,1003.87
2019-03-19T09:35:21.424Z,1003.88
2019-03-19T09:36:21.682Z,1003.98
2019-03-19T09:37:21.762Z,1003.85
2019-03-19T09:38:21.852Z,1003.84
2019-03-19T09:39:22.145Z,1003.85
2019-03-19T09:40:22.251Z,1003.85
2019-03-19T09:41:22.440Z,1003.83
2019-03-19T09:42:23.225Z,1003.78
2019-03-19T09:43:22.841Z,1003.80
2019-03-19T09:44:23.023Z,1003.80
2019-03-19T09:45:23.233Z,1003.89
2019-03-19T09:46:23.495Z,1003.90
2019-03-19T09:47:23.589Z,1003.84
2019-03-19T09:48:23.704Z,1003.91
2019-03-19T09:49:23.864Z,1003.91
2019-03-19T09:50:24.005Z,1003.89
2019-03-19T09:51:24.155Z,1003.90
2019-03-19T09:52:24.327Z,1003.89
2019-03-19T09:53:24.580Z,1003.86
2019-03-19T09:54:24.674Z,1003.89
2019-03-19T09:55:24.770Z,1003.89
2019-03-19T09:56:24.838Z,1003.90
2019-03-19T09:57:25.233Z,1003.90
2019-03-19T09:58:25.186Z,1003.91
2019-03-19T09:59:32.898Z,1003.91
2019-03-19T10:00:25.617Z,1003.94
2019-03-19T10:01:25.640Z,1003.94
2019-03-19T10:02:26.343Z,1004.06
2019-03-19T10:03:25.997Z,1004.13
2019-03-19T10:04:28.227Z,1004.03
2019-03-19T10:05:26.369Z,1004.04
2019-03-19T10:06:26.486Z,1004.09
2019-03-19T10:07:26.574Z,1004.09
2019-03-19T10:08:26.766Z,1004.03
2019-03-19T10:09:26.957Z,1004.02
2019-03-19T10:10:27.103Z,1004.02
2019-03-19T10:11:34.512Z,1004.01
2019-03-19T10:12:29.874Z,1004.01
2019-03-19T10:13:39.322Z,1004.06
2019-03-19T10:14:30.573Z,1004.16
2019-03-19T10:15:30.579Z,1004.16
2019-03-19T10:16:29.202Z,1004.15
2019-03-19T10:17:36.533Z,1004.10
2019-03-19T10:18:30.229Z,1004.07
2019-03-19T10:19:28.706Z,1004.08
2019-03-19T10:20:28.731Z,1004.01
2019-03-19T10:21:28.856Z,1004.14
2019-03-19T10:22:28.999Z,1004.04
2019-03-19T10:23:29.261Z,1004.07
2019-03-19T10:24:29.301Z,1004.06
2019-03-19T10:25:29.547Z,1004.11
2019-03-19T10:26:29.653Z,1004.07
2019-03-19T10:27:29.828Z,1004.08
2019-03-19T10:28:30.052Z,1004.06
2019-03-19T10:29:37.802Z,1004.06
2019-03-19T10:30:30.598Z,1004.11
2019-03-19T10:31:30.731Z,1004.15
2019-03-19T10:32:30.705Z,1004.14
2019-03-19T10:33:31.650Z,1004.11
2019-03-19T10:34:33.946Z,1004.12
2019-03-19T10:35:32.067Z,1004.09
2019-03-19T10:36:32.125Z,1004.16
2019-03-19T10:37:31.897Z,1004.06
2019-03-19T10:38:31.988Z,1004.19
2019-03-19T10:39:34.969Z,1004.16
2019-03-19T10:40:38.902Z,1004.22
2019-03-19T10:41:35.495Z,1004.26
2019-03-19T10:42:32.503Z,1004.27
2019-03-19T10:45:07.912Z,1004.32
2019-03-19T10:46:05.872Z,1004.33
2019-03-19T10:47:07.774Z,1004.34
2019-03-19T10:48:09.738Z,1004.35
2019-03-19T10:49:08.404Z,1004.41
2019-03-19T10:50:06.815Z,1004.43
2019-03-19T10:51:06.790Z,1004.38
2019-03-19T10:52:13.950Z,1004.27
2019-03-19T10:53:07.180Z,1004.18
2019-03-19T10:54:10.159Z,1004.35
2019-03-19T10:55:07.591Z,1004.26
2019-03-19T10:56:07.574Z,1004.10
2019-03-19T10:57:07.809Z,1004.12
2019-03-19T10:58:11.367Z,1004.16
2019-03-19T10:59:09.824Z,1004.15
2019-03-19T11:00:08.536Z,1004.12
2019-03-19T11:01:08.664Z,1004.12
2019-03-19T11:02:08.771Z,1004.12
2019-03-19T11:03:08.847Z,1004.10
2019-03-19T11:04:09.051Z,1004.11
2019-03-19T11:05:09.180Z,1004.10
2019-03-19T11:06:11.974Z,1004.14
2019-03-19T11:07:09.433Z,1004.12
2019-03-19T11:08:09.602Z,1004.13
2019-03-19T11:09:09.772Z,1004.44
2019-03-19T11:10:43.058Z,1004.37
2019-03-19T11:11:13.476Z,1004.20
2019-03-19T11:13:43.935Z,1004.44
2019-03-19T11:14:45.916Z,1004.38
2019-03-19T11:15:42.542Z,1004.40
2019-03-19T11:16:42.542Z,1004.45
2019-03-19T11:17:47.487Z,1004.48
2019-03-19T11:18:55.842Z,1004.45
2019-03-19T11:20:01.102Z,1004.49
2019-03-19T11:20:46.299Z,1004.52
2019-03-19T11:21:43.226Z,1004.58
2019-03-19T11:22:43.266Z,1004.53
2019-03-19T11:23:43.590Z,1004.52
2019-03-19T11:24:43.857Z,1004.53
2019-03-19T11:25:54.083Z,1004.57
2019-03-19T11:26:47.795Z,1004.50
2019-03-19T11:27:44.603Z,1004.54
2019-03-19T11:28:44.520Z,1004.47
2019-03-19T11:29:59.392Z,1004.40
2019-03-19T11:30:44.887Z,1004.49
2019-03-19T11:31:49.215Z,1004.47
2019-03-19T11:32:45.282Z,1004.49
2019-03-19T11:33:47.816Z,1004.54
2019-03-19T11:34:45.620Z,1004.59
2019-03-19T11:35:47.653Z,1004.56
2019-03-19T11:36:57.490Z,1004.52
2019-03-19T11:37:45.987Z,1004.54
2019-03-19T11:38:47.812Z,1004.52
2019-03-19T11:39:46.445Z,1004.22
2019-03-19T11:40:46.525Z,1004.17
2019-03-19T11:41:47.907Z,1004.18
2019-03-19T11:42:47.151Z,1004.17
2019-03-19T11:43:47.097Z,1004.16
2019-03-19T11:44:47.417Z,1004.13
2019-03-19T11:45:47.638Z,1004.19
2019-03-19T11:46:47.960Z,1004.24
2019-03-19T11:47:49.328Z,1004.22
2019-03-19T11:48:48.647Z,1004.15
2019-03-19T11:49:48.234Z,1004.18
2019-03-19T11:50:48.341Z,1004.19
2019-03-19T11:51:48.491Z,1004.15
2019-03-19T11:52:48.771Z,1004.20
2019-03-19T11:53:54.181Z,1004.18
2019-03-19T11:54:54.265Z,1004.14
2019-03-19T11:55:49.258Z,1004.11
2019-03-19T11:56:50.572Z,1004.16
2019-03-19T11:57:52.410Z,1004.21
2019-03-19T11:58:49.626Z,1004.15
2019-03-19T11:59:49.858Z,1004.10
2019-03-19T12:00:50.045Z,1004.13
2019-03-19T12:01:50.249Z,1004.12
2019-03-19T12:02:53.826Z,1004.09
2019-03-19T12:03:50.697Z,1004.10
2019-03-19T12:04:50.893Z,1004.08
2019-03-19T12:05:50.941Z,1004.10
2019-03-19T12:06:51.103Z,1004.09
2019-03-19T12:07:51.610Z,1004.10
2019-03-19T12:08:51.967Z,1004.14
2019-03-19T12:09:52.851Z,1004.17
2019-03-19T12:10:51.831Z,1004.11
2019-03-19T12:11:54.422Z,1004.12
2019-03-19T12:12:52.378Z,1004.19
2019-03-19T12:13:56.401Z,1004.19
2019-03-19T12:14:55.569Z,1004.20
2019-03-19T12:15:54.339Z,1004.18
2019-03-19T12:16:52.964Z,1004.18
2019-03-19T12:17:53.002Z,1004.21
2019-03-19T12:18:53.343Z,1004.23
2019-03-19T12:19:53.526Z,1004.23
2019-03-19T12:20:53.800Z,1004.28
2019-03-19T12:21:53.911Z,1004.26
2019-03-19T12:22:53.912Z,1004.25